sensor_id;sensor_type;location;lat;lon;timestamp;P1;durP1;ratioP1;P2;durP2;ratioP2
20251;SDS011;10284;58.364;15.550;2022-12-18T00:01:13;24.00;;;12.13;;
20251;SDS011;10284;58.364;15.550;2022-12-18T00:03:41;22.10;;;11.23;;
20251;SDS011;10284;58.364;15.550;2022-12-18T00:06:06;22.83;;;10.88;;
20251;SDS011;10284;58.364;15.550;2022-12-18T00:08:32;21.58;;;10.73;;
20251;SDS011;10284;58.364;15.550;2022-12-18T00:11:03;24.92;;;10.55;;
20251;SDS011;10284;58.364;15.550;2022-12-18T00:13:32;25.52;;;10.40;;
20251;SDS011;10284;58.364;15.550;2022-12-18T00:16:01;21.08;;;9.70;;
20251;SDS011;10284;58.364;15.550;2022-12-18T00:18:28;24.52;;;10.30;;
20251;SDS011;10284;58.364;15.550;2022-12-18T00:20:53;22.60;;;10.82;;
20251;SDS011;10284;58.364;15.550;2022-12-18T00:23:18;21.35;;;10.13;;
20251;SDS011;10284;58.364;15.550;2022-12-18T00:25:44;27.20;;;11.55;;
20251;SDS011;10284;58.364;15.550;2022-12-18T00:28:09;25.60;;;11.25;;
20251;SDS011;10284;58.364;15.550;2022-12-18T00:30:35;24.45;;;11.60;;
20251;SDS011;10284;58.364;15.550;2022-12-18T00:33:00;22.73;;;11.45;;
20251;SDS011;10284;58.364;15.550;2022-12-18T00:35:26;25.15;;;10.73;;
20251;SDS011;10284;58.364;15.550;2022-12-18T00:37:51;21.92;;;11.05;;
20251;SDS011;10284;58.364;15.550;2022-12-18T00:40:16;21.48;;;9.95;;
20251;SDS011;10284;58.364;15.550;2022-12-18T00:42:42;24.13;;;10.88;;
20251;SDS011;10284;58.364;15.550;2022-12-18T00:45:26;21.60;;;9.52;;
20251;SDS011;10284;58.364;15.550;2022-12-18T00:47:53;22.05;;;10.35;;
20251;SDS011;10284;58.364;15.550;2022-12-18T00:50:20;20.25;;;10.38;;
20251;SDS011;10284;58.364;15.550;2022-12-18T00:52:46;21.95;;;10.50;;
20251;SDS011;10284;58.364;15.550;2022-12-18T00:55:11;22.60;;;11.48;;
20251;SDS011;10284;58.364;15.550;2022-12-18T00:57:37;19.55;;;9.68;;
20251;SDS011;10284;58.364;15.550;2022-12-18T01:00:04;22.50;;;10.85;;
20251;SDS011;10284;58.364;15.550;2022-12-18T01:02:30;20.58;;;9.70;;
20251;SDS011;10284;58.364;15.550;2022-12-18T01:04:56;22.55;;;10.35;;
20251;SDS011;10284;58.364;15.550;2022-12-18T01:07:21;20.88;;;10.18;;
20251;SDS011;10284;58.364;15.550;2022-12-18T01:09:47;19.42;;;9.77;;
20251;SDS011;10284;58.364;15.550;2022-12-18T01:12:12;19.83;;;9.50;;
20251;SDS011;10284;58.364;15.550;2022-12-18T01:14:37;21.45;;;10.65;;
20251;SDS011;10284;58.364;15.550;2022-12-18T01:17:03;23.02;;;11.25;;
20251;SDS011;10284;58.364;15.550;2022-12-18T01:19:29;22.35;;;10.43;;
20251;SDS011;10284;58.364;15.550;2022-12-18T01:21:54;20.92;;;10.93;;
20251;SDS011;10284;58.364;15.550;2022-12-18T01:24:19;21.42;;;10.77;;
20251;SDS011;10284;58.364;15.550;2022-12-18T01:26:45;19.35;;;10.18;;
20251;SDS011;10284;58.364;15.550;2022-12-18T01:29:10;19.80;;;9.48;;
20251;SDS011;10284;58.364;15.550;2022-12-18T01:31:36;23.63;;;9.95;;
20251;SDS011;10284;58.364;15.550;2022-12-18T01:34:02;21.65;;;10.27;;
20251;SDS011;10284;58.364;15.550;2022-12-18T01:36:32;20.13;;;9.73;;
20251;SDS011;10284;58.364;15.550;2022-12-18T01:38:59;23.13;;;11.15;;
20251;SDS011;10284;58.364;15.550;2022-12-18T01:41:27;21.35;;;9.88;;
20251;SDS011;10284;58.364;15.550;2022-12-18T01:47:14;21.40;;;10.15;;
20251;SDS011;10284;58.364;15.550;2022-12-18T01:49:41;18.90;;;9.70;;
20251;SDS011;10284;58.364;15.550;2022-12-18T01:52:06;21.27;;;9.50;;
20251;SDS011;10284;58.364;15.550;2022-12-18T01:54:32;18.48;;;9.40;;
20251;SDS011;10284;58.364;15.550;2022-12-18T01:56:58;18.05;;;9.82;;
20251;SDS011;10284;58.364;15.550;2022-12-18T01:59:24;21.17;;;8.95;;
20251;SDS011;10284;58.364;15.550;2022-12-18T02:01:49;20.13;;;9.05;;
20251;SDS011;10284;58.364;15.550;2022-12-18T02:04:25;19.40;;;9.40;;
20251;SDS011;10284;58.364;15.550;2022-12-18T02:06:56;18.85;;;8.52;;
20251;SDS011;10284;58.364;15.550;2022-12-18T02:09:31;19.35;;;9.07;;
20251;SDS011;10284;58.364;15.550;2022-12-18T02:12:12;20.05;;;9.43;;
20251;SDS011;10284;58.364;15.550;2022-12-18T02:14:55;19.40;;;8.77;;
20251;SDS011;10284;58.364;15.550;2022-12-18T02:17:38;17.90;;;8.82;;
20251;SDS011;10284;58.364;15.550;2022-12-18T02:20:43;20.40;;;8.60;;
20251;SDS011;10284;58.364;15.550;2022-12-18T02:28:55;19.98;;;9.90;;
20251;SDS011;10284;58.364;15.550;2022-12-18T02:31:26;21.17;;;9.05;;
20251;SDS011;10284;58.364;15.550;2022-12-18T02:33:57;16.92;;;8.57;;
20251;SDS011;10284;58.364;15.550;2022-12-18T02:36:25;19.67;;;9.38;;
20251;SDS011;10284;58.364;15.550;2022-12-18T02:38:52;22.90;;;10.07;;
20251;SDS011;10284;58.364;15.550;2022-12-18T02:41:18;20.50;;;9.82;;
20251;SDS011;10284;58.364;15.550;2022-12-18T02:43:53;24.75;;;9.70;;
20251;SDS011;10284;58.364;15.550;2022-12-18T02:46:29;24.75;;;9.50;;
20251;SDS011;10284;58.364;15.550;2022-12-18T03:00:31;15.52;;;8.05;;
20251;SDS011;10284;58.364;15.550;2022-12-18T03:03:05;18.75;;;8.25;;
20251;SDS011;10284;58.364;15.550;2022-12-18T03:05:52;19.30;;;9.10;;
20251;SDS011;10284;58.364;15.550;2022-12-18T03:08:24;20.63;;;9.55;;
20251;SDS011;10284;58.364;15.550;2022-12-18T03:10:54;18.15;;;8.45;;
20251;SDS011;10284;58.364;15.550;2022-12-18T03:16:25;17.60;;;8.95;;
20251;SDS011;10284;58.364;15.550;2022-12-18T03:18:54;20.98;;;8.90;;
20251;SDS011;10284;58.364;15.550;2022-12-18T03:21:24;18.08;;;8.50;;
20251;SDS011;10284;58.364;15.550;2022-12-18T03:23:57;19.88;;;9.82;;
20251;SDS011;10284;58.364;15.550;2022-12-18T03:26:24;19.75;;;10.30;;
20251;SDS011;10284;58.364;15.550;2022-12-18T03:28:55;25.75;;;10.45;;
20251;SDS011;10284;58.364;15.550;2022-12-18T03:31:26;20.75;;;10.02;;
20251;SDS011;10284;58.364;15.550;2022-12-18T03:36:20;20.17;;;9.95;;
20251;SDS011;10284;58.364;15.550;2022-12-18T03:38:45;20.67;;;9.68;;
20251;SDS011;10284;58.364;15.550;2022-12-18T03:41:15;19.98;;;9.77;;
20251;SDS011;10284;58.364;15.550;2022-12-18T03:46:36;19.42;;;8.88;;
20251;SDS011;10284;58.364;15.550;2022-12-18T03:49:11;17.95;;;9.02;;
20251;SDS011;10284;58.364;15.550;2022-12-18T03:51:45;17.55;;;9.43;;
20251;SDS011;10284;58.364;15.550;2022-12-18T03:54:15;23.35;;;9.00;;
20251;SDS011;10284;58.364;15.550;2022-12-18T03:56:50;18.40;;;9.07;;
20251;SDS011;10284;58.364;15.550;2022-12-18T03:59:22;21.55;;;9.30;;
20251;SDS011;10284;58.364;15.550;2022-12-18T04:01:49;21.73;;;10.02;;
20251;SDS011;10284;58.364;15.550;2022-12-18T04:04:16;21.60;;;9.63;;
20251;SDS011;10284;58.364;15.550;2022-12-18T04:06:43;18.58;;;9.43;;
20251;SDS011;10284;58.364;15.550;2022-12-18T04:09:09;22.15;;;10.52;;
20251;SDS011;10284;58.364;15.550;2022-12-18T04:11:34;20.02;;;10.88;;
20251;SDS011;10284;58.364;15.550;2022-12-18T04:14:00;22.60;;;11.25;;
20251;SDS011;10284;58.364;15.550;2022-12-18T04:16:25;21.85;;;10.88;;
20251;SDS011;10284;58.364;15.550;2022-12-18T04:18:51;24.55;;;11.30;;
20251;SDS011;10284;58.364;15.550;2022-12-18T04:21:17;19.42;;;9.85;;
20251;SDS011;10284;58.364;15.550;2022-12-18T04:23:42;24.30;;;11.43;;
20251;SDS011;10284;58.364;15.550;2022-12-18T04:26:07;21.88;;;11.60;;
20251;SDS011;10284;58.364;15.550;2022-12-18T04:28:33;20.42;;;11.38;;
20251;SDS011;10284;58.364;15.550;2022-12-18T04:30:58;24.35;;;12.13;;
20251;SDS011;10284;58.364;15.550;2022-12-18T04:33:24;21.75;;;10.23;;
20251;SDS011;10284;58.364;15.550;2022-12-18T04:35:49;19.67;;;11.32;;
20251;SDS011;10284;58.364;15.550;2022-12-18T04:38:14;20.35;;;10.68;;
20251;SDS011;10284;58.364;15.550;2022-12-18T04:40:40;20.83;;;10.80;;
20251;SDS011;10284;58.364;15.550;2022-12-18T04:43:06;22.23;;;11.60;;
20251;SDS011;10284;58.364;15.550;2022-12-18T04:45:31;24.25;;;12.27;;
20251;SDS011;10284;58.364;15.550;2022-12-18T04:48:00;23.85;;;12.85;;
20251;SDS011;10284;58.364;15.550;2022-12-18T04:50:27;26.38;;;12.90;;
20251;SDS011;10284;58.364;15.550;2022-12-18T04:52:53;24.48;;;12.38;;
20251;SDS011;10284;58.364;15.550;2022-12-18T04:55:19;28.20;;;12.88;;
20251;SDS011;10284;58.364;15.550;2022-12-18T04:57:45;25.77;;;12.18;;
20251;SDS011;10284;58.364;15.550;2022-12-18T05:00:10;25.20;;;12.65;;
20251;SDS011;10284;58.364;15.550;2022-12-18T05:02:36;23.83;;;11.90;;
20251;SDS011;10284;58.364;15.550;2022-12-18T05:05:02;23.35;;;12.13;;
20251;SDS011;10284;58.364;15.550;2022-12-18T05:07:27;26.83;;;14.10;;
20251;SDS011;10284;58.364;15.550;2022-12-18T05:09:53;25.67;;;13.18;;
20251;SDS011;10284;58.364;15.550;2022-12-18T05:12:18;25.23;;;13.25;;
20251;SDS011;10284;58.364;15.550;2022-12-18T05:14:44;27.50;;;13.88;;
20251;SDS011;10284;58.364;15.550;2022-12-18T05:17:09;27.30;;;13.10;;
20251;SDS011;10284;58.364;15.550;2022-12-18T05:19:34;24.58;;;13.20;;
20251;SDS011;10284;58.364;15.550;2022-12-18T05:22:03;24.65;;;12.68;;
20251;SDS011;10284;58.364;15.550;2022-12-18T05:24:28;23.08;;;12.43;;
20251;SDS011;10284;58.364;15.550;2022-12-18T05:26:54;25.05;;;12.60;;
20251;SDS011;10284;58.364;15.550;2022-12-18T05:29:19;19.17;;;11.23;;
20251;SDS011;10284;58.364;15.550;2022-12-18T05:31:45;21.52;;;11.65;;
20251;SDS011;10284;58.364;15.550;2022-12-18T05:34:10;30.38;;;12.85;;
20251;SDS011;10284;58.364;15.550;2022-12-18T05:36:36;22.48;;;12.50;;
20251;SDS011;10284;58.364;15.550;2022-12-18T05:39:01;25.60;;;13.20;;
20251;SDS011;10284;58.364;15.550;2022-12-18T05:41:27;27.23;;;14.10;;
20251;SDS011;10284;58.364;15.550;2022-12-18T05:43:52;27.98;;;14.82;;
20251;SDS011;10284;58.364;15.550;2022-12-18T05:46:18;25.80;;;13.43;;
20251;SDS011;10284;58.364;15.550;2022-12-18T05:48:43;23.55;;;13.02;;
20251;SDS011;10284;58.364;15.550;2022-12-18T05:51:11;28.08;;;13.50;;
20251;SDS011;10284;58.364;15.550;2022-12-18T05:53:39;22.38;;;12.45;;
20251;SDS011;10284;58.364;15.550;2022-12-18T05:56:06;23.45;;;11.85;;
20251;SDS011;10284;58.364;15.550;2022-12-18T05:58:33;24.10;;;13.00;;
20251;SDS011;10284;58.364;15.550;2022-12-18T06:01:05;25.88;;;12.52;;
20251;SDS011;10284;58.364;15.550;2022-12-18T06:03:32;24.70;;;12.27;;
20251;SDS011;10284;58.364;15.550;2022-12-18T06:05:57;24.00;;;12.38;;
20251;SDS011;10284;58.364;15.550;2022-12-18T06:08:23;23.48;;;12.05;;
20251;SDS011;10284;58.364;15.550;2022-12-18T06:10:51;21.08;;;12.32;;
20251;SDS011;10284;58.364;15.550;2022-12-18T06:13:20;25.02;;;12.10;;
20251;SDS011;10284;58.364;15.550;2022-12-18T06:15:46;21.30;;;11.73;;
20251;SDS011;10284;58.364;15.550;2022-12-18T06:18:11;22.42;;;10.63;;
20251;SDS011;10284;58.364;15.550;2022-12-18T06:20:37;18.70;;;10.57;;
20251;SDS011;10284;58.364;15.550;2022-12-18T06:23:04;18.40;;;10.63;;
20251;SDS011;10284;58.364;15.550;2022-12-18T06:25:30;19.15;;;10.45;;
20251;SDS011;10284;58.364;15.550;2022-12-18T06:27:56;20.00;;;10.52;;
20251;SDS011;10284;58.364;15.550;2022-12-18T06:30:21;18.40;;;10.15;;
20251;SDS011;10284;58.364;15.550;2022-12-18T06:32:47;18.02;;;10.50;;
20251;SDS011;10284;58.364;15.550;2022-12-18T06:35:13;20.08;;;10.52;;
20251;SDS011;10284;58.364;15.550;2022-12-18T06:37:39;19.23;;;10.40;;
20251;SDS011;10284;58.364;15.550;2022-12-18T06:40:04;17.38;;;9.30;;
20251;SDS011;10284;58.364;15.550;2022-12-18T06:42:31;15.90;;;9.38;;
20251;SDS011;10284;58.364;15.550;2022-12-18T06:44:57;17.85;;;9.77;;
20251;SDS011;10284;58.364;15.550;2022-12-18T06:47:22;20.10;;;10.15;;
20251;SDS011;10284;58.364;15.550;2022-12-18T06:49:48;17.90;;;9.98;;
20251;SDS011;10284;58.364;15.550;2022-12-18T06:52:13;17.33;;;9.70;;
20251;SDS011;10284;58.364;15.550;2022-12-18T06:54:39;19.67;;;10.18;;
20251;SDS011;10284;58.364;15.550;2022-12-18T06:57:04;18.67;;;10.32;;
20251;SDS011;10284;58.364;15.550;2022-12-18T06:59:30;20.90;;;11.02;;
20251;SDS011;10284;58.364;15.550;2022-12-18T07:01:55;19.05;;;10.40;;
20251;SDS011;10284;58.364;15.550;2022-12-18T07:04:21;17.52;;;10.18;;
20251;SDS011;10284;58.364;15.550;2022-12-18T07:06:46;19.52;;;10.13;;
20251;SDS011;10284;58.364;15.550;2022-12-18T07:09:11;17.27;;;10.00;;
20251;SDS011;10284;58.364;15.550;2022-12-18T07:11:37;16.30;;;9.93;;
20251;SDS011;10284;58.364;15.550;2022-12-18T07:14:02;16.75;;;10.48;;
20251;SDS011;10284;58.364;15.550;2022-12-18T07:16:28;21.73;;;12.13;;
20251;SDS011;10284;58.364;15.550;2022-12-18T07:18:56;21.13;;;11.07;;
20251;SDS011;10284;58.364;15.550;2022-12-18T07:21:22;19.83;;;11.18;;
20251;SDS011;10284;58.364;15.550;2022-12-18T07:23:48;20.30;;;11.07;;
20251;SDS011;10284;58.364;15.550;2022-12-18T07:26:15;20.45;;;10.82;;
20251;SDS011;10284;58.364;15.550;2022-12-18T07:28:42;18.98;;;11.10;;
20251;SDS011;10284;58.364;15.550;2022-12-18T07:31:08;21.33;;;11.45;;
20251;SDS011;10284;58.364;15.550;2022-12-18T07:33:35;20.98;;;12.30;;
20251;SDS011;10284;58.364;15.550;2022-12-18T07:36:04;21.20;;;11.60;;
20251;SDS011;10284;58.364;15.550;2022-12-18T07:38:30;21.70;;;11.90;;
20251;SDS011;10284;58.364;15.550;2022-12-18T07:41:00;22.30;;;12.00;;
20251;SDS011;10284;58.364;15.550;2022-12-18T07:43:26;20.17;;;11.70;;
20251;SDS011;10284;58.364;15.550;2022-12-18T07:45:52;21.20;;;11.75;;
20251;SDS011;10284;58.364;15.550;2022-12-18T07:48:17;19.23;;;11.60;;
20251;SDS011;10284;58.364;15.550;2022-12-18T07:50:43;23.63;;;12.27;;
20251;SDS011;10284;58.364;15.550;2022-12-18T07:53:08;22.75;;;12.43;;
20251;SDS011;10284;58.364;15.550;2022-12-18T07:55:33;22.13;;;11.93;;
20251;SDS011;10284;58.364;15.550;2022-12-18T07:58:02;22.38;;;11.35;;
20251;SDS011;10284;58.364;15.550;2022-12-18T08:00:28;22.40;;;11.43;;
20251;SDS011;10284;58.364;15.550;2022-12-18T08:02:54;19.92;;;11.93;;
20251;SDS011;10284;58.364;15.550;2022-12-18T08:05:19;19.30;;;11.23;;
20251;SDS011;10284;58.364;15.550;2022-12-18T08:07:46;21.77;;;11.15;;
20251;SDS011;10284;58.364;15.550;2022-12-18T08:10:11;20.85;;;11.23;;
20251;SDS011;10284;58.364;15.550;2022-12-18T08:12:37;22.40;;;11.20;;
20251;SDS011;10284;58.364;15.550;2022-12-18T08:15:02;20.13;;;11.35;;
20251;SDS011;10284;58.364;15.550;2022-12-18T08:17:28;23.85;;;12.27;;
20251;SDS011;10284;58.364;15.550;2022-12-18T08:19:53;22.73;;;12.25;;
20251;SDS011;10284;58.364;15.550;2022-12-18T08:22:19;22.95;;;12.13;;
20251;SDS011;10284;58.364;15.550;2022-12-18T08:24:44;21.17;;;11.30;;
20251;SDS011;10284;58.364;15.550;2022-12-18T08:27:10;23.30;;;11.60;;
20251;SDS011;10284;58.364;15.550;2022-12-18T08:29:35;26.30;;;12.35;;
20251;SDS011;10284;58.364;15.550;2022-12-18T08:32:01;21.88;;;11.43;;
20251;SDS011;10284;58.364;15.550;2022-12-18T08:34:26;23.00;;;11.48;;
20251;SDS011;10284;58.364;15.550;2022-12-18T08:36:51;21.70;;;11.30;;
20251;SDS011;10284;58.364;15.550;2022-12-18T08:39:17;23.33;;;11.82;;
20251;SDS011;10284;58.364;15.550;2022-12-18T08:41:42;22.70;;;11.60;;
20251;SDS011;10284;58.364;15.550;2022-12-18T08:44:28;23.50;;;12.20;;
20251;SDS011;10284;58.364;15.550;2022-12-18T08:47:02;23.77;;;11.55;;
20251;SDS011;10284;58.364;15.550;2022-12-18T08:49:28;22.02;;;11.13;;
20251;SDS011;10284;58.364;15.550;2022-12-18T08:51:54;27.08;;;12.05;;
20251;SDS011;10284;58.364;15.550;2022-12-18T08:54:20;25.73;;;11.73;;
20251;SDS011;10284;58.364;15.550;2022-12-18T08:56:45;24.00;;;12.77;;
20251;SDS011;10284;58.364;15.550;2022-12-18T08:59:11;20.25;;;10.90;;
20251;SDS011;10284;58.364;15.550;2022-12-18T09:01:36;21.08;;;11.65;;
20251;SDS011;10284;58.364;15.550;2022-12-18T09:04:01;24.60;;;12.07;;
20251;SDS011;10284;58.364;15.550;2022-12-18T09:06:27;27.15;;;12.00;;
20251;SDS011;10284;58.364;15.550;2022-12-18T09:08:52;29.27;;;12.13;;
20251;SDS011;10284;58.364;15.550;2022-12-18T09:11:19;23.75;;;11.20;;
20251;SDS011;10284;58.364;15.550;2022-12-18T09:13:47;23.95;;;12.32;;
20251;SDS011;10284;58.364;15.550;2022-12-18T09:16:12;24.63;;;12.35;;
20251;SDS011;10284;58.364;15.550;2022-12-18T09:18:37;24.38;;;12.05;;
20251;SDS011;10284;58.364;15.550;2022-12-18T09:21:13;21.42;;;11.10;;
20251;SDS011;10284;58.364;15.550;2022-12-18T09:23:40;23.90;;;12.35;;
20251;SDS011;10284;58.364;15.550;2022-12-18T09:26:06;20.85;;;11.10;;
20251;SDS011;10284;58.364;15.550;2022-12-18T09:28:31;23.77;;;11.57;;
20251;SDS011;10284;58.364;15.550;2022-12-18T09:30:57;23.85;;;10.95;;
20251;SDS011;10284;58.364;15.550;2022-12-18T09:33:22;22.65;;;11.40;;
20251;SDS011;10284;58.364;15.550;2022-12-18T09:35:48;27.02;;;12.48;;
20251;SDS011;10284;58.364;15.550;2022-12-18T09:38:14;24.10;;;11.73;;
20251;SDS011;10284;58.364;15.550;2022-12-18T09:40:48;23.90;;;11.18;;
20251;SDS011;10284;58.364;15.550;2022-12-18T09:43:18;23.77;;;12.15;;
20251;SDS011;10284;58.364;15.550;2022-12-18T09:45:47;19.75;;;10.68;;
20251;SDS011;10284;58.364;15.550;2022-12-18T09:48:35;23.02;;;11.18;;
20251;SDS011;10284;58.364;15.550;2022-12-18T09:51:15;19.90;;;10.15;;
20251;SDS011;10284;58.364;15.550;2022-12-18T09:53:46;22.23;;;11.52;;
20251;SDS011;10284;58.364;15.550;2022-12-18T09:56:19;18.55;;;10.50;;
20251;SDS011;10284;58.364;15.550;2022-12-18T09:58:50;23.20;;;11.68;;
20251;SDS011;10284;58.364;15.550;2022-12-18T10:01:21;21.52;;;10.50;;
20251;SDS011;10284;58.364;15.550;2022-12-18T10:03:47;16.73;;;10.07;;
20251;SDS011;10284;58.364;15.550;2022-12-18T10:09:02;15.07;;;8.90;;
20251;SDS011;10284;58.364;15.550;2022-12-18T10:14:44;21.70;;;10.18;;
20251;SDS011;10284;58.364;15.550;2022-12-18T10:23:04;20.25;;;10.32;;
20251;SDS011;10284;58.364;15.550;2022-12-18T10:25:58;19.13;;;9.35;;
20251;SDS011;10284;58.364;15.550;2022-12-18T10:28:25;18.70;;;9.10;;
20251;SDS011;10284;58.364;15.550;2022-12-18T10:30:51;19.17;;;9.90;;
20251;SDS011;10284;58.364;15.550;2022-12-18T10:33:21;16.50;;;8.95;;
20251;SDS011;10284;58.364;15.550;2022-12-18T10:35:49;15.60;;;9.23;;
20251;SDS011;10284;58.364;15.550;2022-12-18T10:48:34;16.60;;;8.30;;
20251;SDS011;10284;58.364;15.550;2022-12-18T10:51:01;17.10;;;7.93;;
20251;SDS011;10284;58.364;15.550;2022-12-18T10:53:29;15.35;;;8.13;;
20251;SDS011;10284;58.364;15.550;2022-12-18T10:55:55;17.50;;;7.85;;
20251;SDS011;10284;58.364;15.550;2022-12-18T10:58:30;15.75;;;7.68;;
20251;SDS011;10284;58.364;15.550;2022-12-18T11:03:43;17.25;;;7.90;;
20251;SDS011;10284;58.364;15.550;2022-12-18T11:06:14;13.93;;;7.35;;
20251;SDS011;10284;58.364;15.550;2022-12-18T11:08:45;14.50;;;7.53;;
20251;SDS011;10284;58.364;15.550;2022-12-18T11:11:33;13.65;;;7.50;;
20251;SDS011;10284;58.364;15.550;2022-12-18T11:14:01;13.57;;;7.68;;
20251;SDS011;10284;58.364;15.550;2022-12-18T11:16:47;13.77;;;7.30;;
20251;SDS011;10284;58.364;15.550;2022-12-18T11:21:56;15.65;;;6.85;;
20251;SDS011;10284;58.364;15.550;2022-12-18T11:24:32;11.50;;;7.03;;
20251;SDS011;10284;58.364;15.550;2022-12-18T11:27:02;15.80;;;7.72;;
20251;SDS011;10284;58.364;15.550;2022-12-18T11:29:32;12.07;;;6.80;;
20251;SDS011;10284;58.364;15.550;2022-12-18T11:34:41;12.70;;;6.40;;
20251;SDS011;10284;58.364;15.550;2022-12-18T11:37:10;12.60;;;6.30;;
20251;SDS011;10284;58.364;15.550;2022-12-18T11:39:38;11.45;;;6.10;;
20251;SDS011;10284;58.364;15.550;2022-12-18T11:42:19;10.93;;;5.95;;
20251;SDS011;10284;58.364;15.550;2022-12-18T11:50:21;9.93;;;5.68;;
20251;SDS011;10284;58.364;15.550;2022-12-18T11:52:50;10.60;;;5.10;;
20251;SDS011;10284;58.364;15.550;2022-12-18T11:55:23;11.90;;;5.95;;
20251;SDS011;10284;58.364;15.550;2022-12-18T12:00:49;10.15;;;5.05;;
20251;SDS011;10284;58.364;15.550;2022-12-18T12:03:27;9.07;;;5.10;;
20251;SDS011;10284;58.364;15.550;2022-12-18T12:06:12;8.65;;;4.85;;
20251;SDS011;10284;58.364;15.550;2022-12-18T12:17:03;8.27;;;4.93;;
20251;SDS011;10284;58.364;15.550;2022-12-18T12:22:00;6.55;;;4.40;;
20251;SDS011;10284;58.364;15.550;2022-12-18T12:24:56;8.05;;;4.40;;
20251;SDS011;10284;58.364;15.550;2022-12-18T12:34:55;8.10;;;4.22;;
20251;SDS011;10284;58.364;15.550;2022-12-18T12:40:02;9.48;;;4.50;;
20251;SDS011;10284;58.364;15.550;2022-12-18T12:42:38;10.23;;;5.13;;
20251;SDS011;10284;58.364;15.550;2022-12-18T12:45:31;10.73;;;4.85;;
20251;SDS011;10284;58.364;15.550;2022-12-18T12:50:26;8.60;;;4.65;;
20251;SDS011;10284;58.364;15.550;2022-12-18T12:52:53;7.50;;;4.57;;
20251;SDS011;10284;58.364;15.550;2022-12-18T12:55:21;34.45;;;16.75;;
20251;SDS011;10284;58.364;15.550;2022-12-18T12:58:34;9.35;;;5.20;;
20251;SDS011;10284;58.364;15.550;2022-12-18T13:00:42;12.43;;;7.43;;
20251;SDS011;10284;58.364;15.550;2022-12-18T13:03:24;31.30;;;15.52;;
20251;SDS011;10284;58.364;15.550;2022-12-18T13:09:02;8.85;;;5.13;;
20251;SDS011;10284;58.364;15.550;2022-12-18T13:14:36;8.93;;;5.50;;
20251;SDS011;10284;58.364;15.550;2022-12-18T13:19:50;14.40;;;5.60;;
20251;SDS011;10284;58.364;15.550;2022-12-18T13:22:23;10.65;;;5.18;;
20251;SDS011;10284;58.364;15.550;2022-12-18T13:24:50;14.48;;;5.55;;
20251;SDS011;10284;58.364;15.550;2022-12-18T13:43:22;13.90;;;5.60;;
20251;SDS011;10284;58.364;15.550;2022-12-18T13:48:24;9.18;;;4.93;;
20251;SDS011;10284;58.364;15.550;2022-12-18T13:50:58;11.82;;;4.80;;
20251;SDS011;10284;58.364;15.550;2022-12-18T13:53:26;11.50;;;5.22;;
20251;SDS011;10284;58.364;15.550;2022-12-18T13:55:55;10.48;;;4.90;;
20251;SDS011;10284;58.364;15.550;2022-12-18T13:58:20;16.33;;;5.30;;
20251;SDS011;10284;58.364;15.550;2022-12-18T14:00:46;13.43;;;5.05;;
20251;SDS011;10284;58.364;15.550;2022-12-18T14:03:19;9.57;;;5.10;;
20251;SDS011;10284;58.364;15.550;2022-12-18T14:05:59;11.18;;;4.97;;
20251;SDS011;10284;58.364;15.550;2022-12-18T14:08:27;10.75;;;4.95;;
20251;SDS011;10284;58.364;15.550;2022-12-18T14:10:58;11.70;;;5.32;;
20251;SDS011;10284;58.364;15.550;2022-12-18T14:13:28;11.38;;;4.63;;
20251;SDS011;10284;58.364;15.550;2022-12-18T14:15:56;10.70;;;4.68;;
20251;SDS011;10284;58.364;15.550;2022-12-18T14:20:52;11.57;;;5.20;;
20251;SDS011;10284;58.364;15.550;2022-12-18T14:25:52;12.80;;;5.50;;
20251;SDS011;10284;58.364;15.550;2022-12-18T14:28:17;11.50;;;5.55;;
20251;SDS011;10284;58.364;15.550;2022-12-18T14:30:44;11.80;;;5.32;;
20251;SDS011;10284;58.364;15.550;2022-12-18T14:33:17;11.30;;;5.43;;
20251;SDS011;10284;58.364;15.550;2022-12-18T14:35:55;11.43;;;5.40;;
20251;SDS011;10284;58.364;15.550;2022-12-18T14:41:02;15.25;;;5.60;;
20251;SDS011;10284;58.364;15.550;2022-12-18T14:43:39;11.93;;;5.38;;
20251;SDS011;10284;58.364;15.550;2022-12-18T14:49:03;13.63;;;5.78;;
20251;SDS011;10284;58.364;15.550;2022-12-18T14:51:31;13.10;;;5.63;;
20251;SDS011;10284;58.364;15.550;2022-12-18T14:53:59;11.52;;;5.50;;
20251;SDS011;10284;58.364;15.550;2022-12-18T14:56:27;13.52;;;5.43;;
20251;SDS011;10284;58.364;15.550;2022-12-18T14:58:57;13.88;;;5.90;;
20251;SDS011;10284;58.364;15.550;2022-12-18T15:01:34;14.13;;;5.82;;
20251;SDS011;10284;58.364;15.550;2022-12-18T15:04:02;13.60;;;6.25;;
20251;SDS011;10284;58.364;15.550;2022-12-18T15:06:33;16.58;;;7.18;;
20251;SDS011;10284;58.364;15.550;2022-12-18T15:09:02;12.77;;;5.78;;
20251;SDS011;10284;58.364;15.550;2022-12-18T15:14:42;11.45;;;5.50;;
20251;SDS011;10284;58.364;15.550;2022-12-18T15:19:45;11.00;;;4.97;;
20251;SDS011;10284;58.364;15.550;2022-12-18T15:22:32;14.98;;;5.50;;
20251;SDS011;10284;58.364;15.550;2022-12-18T15:24:59;16.50;;;6.20;;
20251;SDS011;10284;58.364;15.550;2022-12-18T15:30:15;15.57;;;6.30;;
20251;SDS011;10284;58.364;15.550;2022-12-18T15:32:43;16.02;;;6.32;;
20251;SDS011;10284;58.364;15.550;2022-12-18T15:37:42;16.48;;;6.13;;
20251;SDS011;10284;58.364;15.550;2022-12-18T15:40:11;14.45;;;6.00;;
20251;SDS011;10284;58.364;15.550;2022-12-18T15:42:39;15.25;;;6.07;;
20251;SDS011;10284;58.364;15.550;2022-12-18T15:45:23;16.17;;;5.80;;
20251;SDS011;10284;58.364;15.550;2022-12-18T15:47:49;15.55;;;5.80;;
20251;SDS011;10284;58.364;15.550;2022-12-18T15:50:14;15.27;;;5.65;;
20251;SDS011;10284;58.364;15.550;2022-12-18T15:52:41;14.43;;;5.55;;
20251;SDS011;10284;58.364;15.550;2022-12-18T15:55:14;15.10;;;5.93;;
20251;SDS011;10284;58.364;15.550;2022-12-18T15:58:00;11.15;;;4.93;;
20251;SDS011;10284;58.364;15.550;2022-12-18T16:00:25;12.77;;;5.60;;
20251;SDS011;10284;58.364;15.550;2022-12-18T16:02:51;15.98;;;5.53;;
20251;SDS011;10284;58.364;15.550;2022-12-18T16:05:17;15.02;;;5.78;;
20251;SDS011;10284;58.364;15.550;2022-12-18T16:07:44;11.50;;;5.00;;
20251;SDS011;10284;58.364;15.550;2022-12-18T16:10:10;14.20;;;4.85;;
20251;SDS011;10284;58.364;15.550;2022-12-18T16:12:36;12.75;;;4.85;;
20251;SDS011;10284;58.364;15.550;2022-12-18T16:15:01;8.93;;;4.68;;
20251;SDS011;10284;58.364;15.550;2022-12-18T16:17:27;14.18;;;6.03;;
20251;SDS011;10284;58.364;15.550;2022-12-18T16:19:53;14.15;;;4.60;;
20251;SDS011;10284;58.364;15.550;2022-12-18T16:22:28;15.48;;;5.32;;
20251;SDS011;10284;58.364;15.550;2022-12-18T16:24:54;12.13;;;4.53;;
20251;SDS011;10284;58.364;15.550;2022-12-18T16:27:21;11.43;;;4.55;;
20251;SDS011;10284;58.364;15.550;2022-12-18T16:29:46;13.43;;;4.70;;
20251;SDS011;10284;58.364;15.550;2022-12-18T16:32:19;13.00;;;4.57;;
20251;SDS011;10284;58.364;15.550;2022-12-18T16:34:46;12.77;;;4.68;;
20251;SDS011;10284;58.364;15.550;2022-12-18T16:37:12;8.52;;;4.18;;
20251;SDS011;10284;58.364;15.550;2022-12-18T16:39:39;12.32;;;4.20;;
20251;SDS011;10284;58.364;15.550;2022-12-18T16:44:41;13.15;;;5.15;;
20251;SDS011;10284;58.364;15.550;2022-12-18T16:47:07;11.23;;;4.78;;